sensor_id;sensor_type;location;lat;lon;timestamp;temperature;humidity
77218;DHT22;66214;51.302;17.068;2023-11-18T00:00:56;4.36;86.56
77218;DHT22;66214;51.302;17.068;2023-11-18T00:03:44;4.37;86.37
77218;DHT22;66214;51.302;17.068;2023-11-18T00:06:12;4.35;86.20
77218;DHT22;66214;51.302;17.068;2023-11-18T00:08:42;4.34;86.17
77218;DHT22;66214;51.302;17.068;2023-11-18T00:11:10;4.34;86.24
77218;DHT22;66214;51.302;17.068;2023-11-18T00:13:39;4.35;86.79
77218;DHT22;66214;51.302;17.068;2023-11-18T00:16:10;4.36;87.08
77218;DHT22;66214;51.302;17.068;2023-11-18T00:18:43;4.36;87.01
77218;DHT22;66214;51.302;17.068;2023-11-18T00:21:11;4.36;87.08
77218;DHT22;66214;51.302;17.068;2023-11-18T00:23:40;4.34;86.92
77218;DHT22;66214;51.302;17.068;2023-11-18T00:26:08;4.32;86.86
77218;DHT22;66214;51.302;17.068;2023-11-18T00:28:38;4.32;86.69
77218;DHT22;66214;51.302;17.068;2023-11-18T00:31:06;4.34;86.90
77218;DHT22;66214;51.302;17.068;2023-11-18T00:33:34;4.32;87.32
77218;DHT22;66214;51.302;17.068;2023-11-18T00:36:02;4.31;87.61
77218;DHT22;66214;51.302;17.068;2023-11-18T00:38:30;4.32;87.46
77218;DHT22;66214;51.302;17.068;2023-11-18T00:40:59;4.34;87.59
77218;DHT22;66214;51.302;17.068;2023-11-18T00:43:28;4.35;87.71
77218;DHT22;66214;51.302;17.068;2023-11-18T00:45:56;4.35;87.49
77218;DHT22;66214;51.302;17.068;2023-11-18T00:48:26;4.33;87.52
77218;DHT22;66214;51.302;17.068;2023-11-18T00:50:55;4.34;87.64
77218;DHT22;66214;51.302;17.068;2023-11-18T00:53:24;4.38;87.89
77218;DHT22;66214;51.302;17.068;2023-11-18T00:55:52;4.40;88.00
77218;DHT22;66214;51.302;17.068;2023-11-18T00:58:20;4.42;88.05
77218;DHT22;66214;51.302;17.068;2023-11-18T01:00:48;4.44;88.03
77218;DHT22;66214;51.302;17.068;2023-11-18T01:03:16;4.45;87.96
77218;DHT22;66214;51.302;17.068;2023-11-18T01:05:44;4.45;87.70
77218;DHT22;66214;51.302;17.068;2023-11-18T01:08:13;4.46;87.69
77218;DHT22;66214;51.302;17.068;2023-11-18T01:10:41;4.47;87.69
77218;DHT22;66214;51.302;17.068;2023-11-18T01:13:09;4.50;87.72
77218;DHT22;66214;51.302;17.068;2023-11-18T01:15:37;4.50;87.95
77218;DHT22;66214;51.302;17.068;2023-11-18T01:18:05;4.50;88.02
77218;DHT22;66214;51.302;17.068;2023-11-18T01:20:33;4.47;87.89
77218;DHT22;66214;51.302;17.068;2023-11-18T01:23:02;4.45;87.80
77218;DHT22;66214;51.302;17.068;2023-11-18T01:25:30;4.41;87.88
77218;DHT22;66214;51.302;17.068;2023-11-18T01:27:58;4.39;88.09
77218;DHT22;66214;51.302;17.068;2023-11-18T01:30:27;4.39;88.17
77218;DHT22;66214;51.302;17.068;2023-11-18T01:32:55;4.40;88.24
77218;DHT22;66214;51.302;17.068;2023-11-18T01:35:24;4.41;88.25
77218;DHT22;66214;51.302;17.068;2023-11-18T01:37:54;4.39;88.30
77218;DHT22;66214;51.302;17.068;2023-11-18T01:40:23;4.38;88.20
77218;DHT22;66214;51.302;17.068;2023-11-18T05:03:55;3.64;88.93
77218;DHT22;66214;51.302;17.068;2023-11-18T05:06:23;3.65;88.84
77218;DHT22;66214;51.302;17.068;2023-11-18T05:08:52;3.65;88.83
77218;DHT22;66214;51.302;17.068;2023-11-18T05:11:20;3.63;88.78
77218;DHT22;66214;51.302;17.068;2023-11-18T05:13:48;3.63;88.67
77218;DHT22;66214;51.302;17.068;2023-11-18T05:16:17;3.63;88.58
77218;DHT22;66214;51.302;17.068;2023-11-18T05:18:47;3.62;88.68
77218;DHT22;66214;51.302;17.068;2023-11-18T05:21:16;3.63;88.66
77218;DHT22;66214;51.302;17.068;2023-11-18T05:23:48;3.61;88.80
77218;DHT22;66214;51.302;17.068;2023-11-18T05:26:17;3.60;88.69
77218;DHT22;66214;51.302;17.068;2023-11-18T05:32:14;3.60;88.52
77218;DHT22;66214;51.302;17.068;2023-11-18T05:34:42;3.62;88.64
77218;DHT22;66214;51.302;17.068;2023-11-18T05:37:11;3.64;88.62
77218;DHT22;66214;51.302;17.068;2023-11-18T05:39:41;3.64;88.57
77218;DHT22;66214;51.302;17.068;2023-11-18T05:42:11;3.64;88.58
77218;DHT22;66214;51.302;17.068;2023-11-18T05:44:40;3.62;88.55
77218;DHT22;66214;51.302;17.068;2023-11-18T05:47:11;3.61;88.52
77218;DHT22;66214;51.302;17.068;2023-11-18T05:49:40;3.61;88.58
77218;DHT22;66214;51.302;17.068;2023-11-18T05:52:09;3.62;88.64
77218;DHT22;66214;51.302;17.068;2023-11-18T05:54:37;3.62;88.67
77218;DHT22;66214;51.302;17.068;2023-11-18T05:57:05;3.63;88.61
77218;DHT22;66214;51.302;17.068;2023-11-18T05:59:33;3.61;88.55
77218;DHT22;66214;51.302;17.068;2023-11-18T06:02:02;3.60;88.54
77218;DHT22;66214;51.302;17.068;2023-11-18T06:04:31;3.62;88.55
77218;DHT22;66214;51.302;17.068;2023-11-18T06:06:59;3.65;88.56
77218;DHT22;66214;51.302;17.068;2023-11-18T06:09:28;3.65;88.68
77218;DHT22;66214;51.302;17.068;2023-11-18T06:11:57;3.67;88.65
77218;DHT22;66214;51.302;17.068;2023-11-18T06:14:26;3.67;88.46
77218;DHT22;66214;51.302;17.068;2023-11-18T06:16:55;3.67;88.40
77218;DHT22;66214;51.302;17.068;2023-11-18T06:19:24;3.64;88.46
77218;DHT22;66214;51.302;17.068;2023-11-18T06:21:52;3.63;88.44
77218;DHT22;66214;51.302;17.068;2023-11-18T06:24:20;3.64;88.59
77218;DHT22;66214;51.302;17.068;2023-11-18T06:26:49;3.64;88.66
77218;DHT22;66214;51.302;17.068;2023-11-18T06:29:17;3.63;88.67
77218;DHT22;66214;51.302;17.068;2023-11-18T06:31:46;3.62;88.63
77218;DHT22;66214;51.302;17.068;2023-11-18T06:34:14;3.60;88.54
77218;DHT22;66214;51.302;17.068;2023-11-18T06:36:42;3.59;88.42
77218;DHT22;66214;51.302;17.068;2023-11-18T06:39:10;3.59;88.46
77218;DHT22;66214;51.302;17.068;2023-11-18T06:41:42;3.63;88.61
77218;DHT22;66214;51.302;17.068;2023-11-18T06:44:16;3.62;88.54
77218;DHT22;66214;51.302;17.068;2023-11-18T06:46:51;3.61;88.58
77218;DHT22;66214;51.302;17.068;2023-11-18T06:49:19;3.59;88.44
77218;DHT22;66214;51.302;17.068;2023-11-18T06:51:49;3.58;88.44
77218;DHT22;66214;51.302;17.068;2023-11-18T06:54:19;3.60;88.37
77218;DHT22;66214;51.302;17.068;2023-11-18T06:56:47;3.62;88.44
77218;DHT22;66214;51.302;17.068;2023-11-18T06:59:15;3.62;88.54
77218;DHT22;66214;51.302;17.068;2023-11-18T07:01:43;3.62;88.65
77218;DHT22;66214;51.302;17.068;2023-11-18T07:04:11;3.63;88.58
77218;DHT22;66214;51.302;17.068;2023-11-18T07:06:39;3.65;88.51
77218;DHT22;66214;51.302;17.068;2023-11-18T07:09:08;3.70;88.50
77218;DHT22;66214;51.302;17.068;2023-11-18T07:11:41;3.73;88.57
77218;DHT22;66214;51.302;17.068;2023-11-18T07:14:09;3.72;88.68
77218;DHT22;66214;51.302;17.068;2023-11-18T07:16:40;3.76;88.51
77218;DHT22;66214;51.302;17.068;2023-11-18T07:19:10;3.76;88.34
77218;DHT22;66214;51.302;17.068;2023-11-18T07:21:46;3.77;88.33
77218;DHT22;66214;51.302;17.068;2023-11-18T07:24:15;3.82;88.39
77218;DHT22;66214;51.302;17.068;2023-11-18T07:26:44;3.84;88.43
77218;DHT22;66214;51.302;17.068;2023-11-18T07:29:13;3.87;88.46
77218;DHT22;66214;51.302;17.068;2023-11-18T07:31:42;3.87;88.45
77218;DHT22;66214;51.302;17.068;2023-11-18T07:34:10;3.85;88.37
77218;DHT22;66214;51.302;17.068;2023-11-18T07:36:39;3.85;88.28
77218;DHT22;66214;51.302;17.068;2023-11-18T07:39:07;3.88;88.33
77218;DHT22;66214;51.302;17.068;2023-11-18T07:41:43;3.92;88.38
77218;DHT22;66214;51.302;17.068;2023-11-18T07:44:12;3.95;88.43
77218;DHT22;66214;51.302;17.068;2023-11-18T07:46:40;3.96;88.37
77218;DHT22;66214;51.302;17.068;2023-11-18T07:49:10;3.99;88.25
77218;DHT22;66214;51.302;17.068;2023-11-18T07:51:38;4.01;88.03
77218;DHT22;66214;51.302;17.068;2023-11-18T07:54:08;4.00;87.89
77218;DHT22;66214;51.302;17.068;2023-11-18T07:56:37;4.03;87.99
77218;DHT22;66214;51.302;17.068;2023-11-18T07:59:05;4.08;88.06
77218;DHT22;66214;51.302;17.068;2023-11-18T08:01:35;4.14;88.15
77218;DHT22;66214;51.302;17.068;2023-11-18T08:04:04;4.18;88.16
77218;DHT22;66214;51.302;17.068;2023-11-18T08:06:34;4.18;87.95
77218;DHT22;66214;51.302;17.068;2023-11-18T08:09:03;4.22;87.69
77218;DHT22;66214;51.302;17.068;2023-11-18T08:11:31;4.22;87.57
77218;DHT22;66214;51.302;17.068;2023-11-18T08:14:01;4.22;87.63
77218;DHT22;66214;51.302;17.068;2023-11-18T08:16:30;4.24;87.73
77218;DHT22;66214;51.302;17.068;2023-11-18T08:19:00;4.28;87.84
77218;DHT22;66214;51.302;17.068;2023-11-18T08:21:30;4.29;87.80
77218;DHT22;66214;51.302;17.068;2023-11-18T08:23:58;4.32;87.83
77218;DHT22;66214;51.302;17.068;2023-11-18T08:26:28;4.33;87.67
77218;DHT22;66214;51.302;17.068;2023-11-18T08:28:56;4.35;87.46
77218;DHT22;66214;51.302;17.068;2023-11-18T08:31:24;4.37;87.29
77218;DHT22;66214;51.302;17.068;2023-11-18T08:33:53;4.38;87.17
77218;DHT22;66214;51.302;17.068;2023-11-18T08:36:22;4.36;87.28
77218;DHT22;66214;51.302;17.068;2023-11-18T08:38:55;4.38;87.43
77218;DHT22;66214;51.302;17.068;2023-11-18T08:41:24;4.40;87.44
77218;DHT22;66214;51.302;17.068;2023-11-18T08:43:52;4.37;87.39
77218;DHT22;66214;51.302;17.068;2023-11-18T08:46:21;4.36;87.35
77218;DHT22;66214;51.302;17.068;2023-11-18T08:48:49;4.36;87.25
77218;DHT22;66214;51.302;17.068;2023-11-18T08:51:17;4.38;87.12
77218;DHT22;66214;51.302;17.068;2023-11-18T08:53:45;4.42;87.17
77218;DHT22;66214;51.302;17.068;2023-11-18T08:56:15;4.41;87.19
77218;DHT22;66214;51.302;17.068;2023-11-18T09:02:02;4.41;87.46
77218;DHT22;66214;51.302;17.068;2023-11-18T09:04:33;4.40;87.34
77218;DHT22;66214;51.302;17.068;2023-11-18T09:07:01;4.38;87.23
77218;DHT22;66214;51.302;17.068;2023-11-18T09:09:30;4.39;87.26
77218;DHT22;66214;51.302;17.068;2023-11-18T09:12:01;4.38;87.25
77218;DHT22;66214;51.302;17.068;2023-11-18T09:14:30;4.39;87.26
77218;DHT22;66214;51.302;17.068;2023-11-18T09:16:59;4.40;87.07
77218;DHT22;66214;51.302;17.068;2023-11-18T09:19:27;4.39;86.93
77218;DHT22;66214;51.302;17.068;2023-11-18T09:21:55;4.36;86.83
77218;DHT22;66214;51.302;17.068;2023-11-18T09:24:23;4.40;86.93
77218;DHT22;66214;51.302;17.068;2023-11-18T09:26:52;4.44;87.01
77218;DHT22;66214;51.302;17.068;2023-11-18T09:29:22;4.49;87.10
77218;DHT22;66214;51.302;17.068;2023-11-18T09:31:51;4.52;86.95
77218;DHT22;66214;51.302;17.068;2023-11-18T09:34:20;4.54;86.64
77218;DHT22;66214;51.302;17.068;2023-11-18T09:36:54;4.55;86.47
77218;DHT22;66214;51.302;17.068;2023-11-18T09:39:23;4.58;86.49
77218;DHT22;66214;51.302;17.068;2023-11-18T09:42:05;4.61;86.52
77218;DHT22;66214;51.302;17.068;2023-11-18T09:44:37;4.60;86.56
77218;DHT22;66214;51.302;17.068;2023-11-18T09:47:07;4.60;86.61
77218;DHT22;66214;51.302;17.068;2023-11-18T09:53:07;4.65;86.43
77218;DHT22;66214;51.302;17.068;2023-11-18T09:55:45;4.66;86.07
77218;DHT22;66214;51.302;17.068;2023-11-18T09:58:25;4.65;85.97
77218;DHT22;66214;51.302;17.068;2023-11-18T10:01:08;4.64;85.77
77218;DHT22;66214;51.302;17.068;2023-11-18T10:03:41;4.62;85.92
77218;DHT22;66214;51.302;17.068;2023-11-18T10:06:13;4.63;86.10
77218;DHT22;66214;51.302;17.068;2023-11-18T10:08:42;4.60;86.04
77218;DHT22;66214;51.302;17.068;2023-11-18T10:11:13;4.58;85.98
77218;DHT22;66214;51.302;17.068;2023-11-18T10:13:44;4.58;85.87
77218;DHT22;66214;51.302;17.068;2023-11-18T10:16:12;4.59;85.98
77218;DHT22;66214;51.302;17.068;2023-11-18T10:18:40;4.59;86.19
77218;DHT22;66214;51.302;17.068;2023-11-18T10:21:16;4.58;86.22
77218;DHT22;66214;51.302;17.068;2023-11-18T10:24:07;4.58;86.31
77218;DHT22;66214;51.302;17.068;2023-11-18T10:27:00;4.59;86.44
77218;DHT22;66214;51.302;17.068;2023-11-18T10:29:28;4.59;86.36
77218;DHT22;66214;51.302;17.068;2023-11-18T10:32:06;4.58;86.30
77218;DHT22;66214;51.302;17.068;2023-11-18T10:34:43;4.51;86.34
77218;DHT22;66214;51.302;17.068;2023-11-18T10:37:13;4.48;86.40
77218;DHT22;66214;51.302;17.068;2023-11-18T10:43:07;4.42;86.79
77218;DHT22;66214;51.302;17.068;2023-11-18T10:45:37;4.36;86.92
77218;DHT22;66214;51.302;17.068;2023-11-18T10:48:08;4.30;86.92
77218;DHT22;66214;51.302;17.068;2023-11-18T10:50:40;4.25;86.99
77218;DHT22;66214;51.302;17.068;2023-11-18T10:53:10;4.24;87.11
77218;DHT22;66214;51.302;17.068;2023-11-18T10:55:41;4.25;87.16
77218;DHT22;66214;51.302;17.068;2023-11-18T10:58:09;4.27;87.28
77218;DHT22;66214;51.302;17.068;2023-11-18T11:03:55;4.06;87.56
77218;DHT22;66214;51.302;17.068;2023-11-18T11:06:24;4.07;87.37
77218;DHT22;66214;51.302;17.068;2023-11-18T11:09:01;4.08;87.42
77218;DHT22;66214;51.302;17.068;2023-11-18T11:11:39;4.08;87.46
77218;DHT22;66214;51.302;17.068;2023-11-18T11:14:24;4.10;87.43
77218;DHT22;66214;51.302;17.068;2023-11-18T11:17:12;4.14;87.58
77218;DHT22;66214;51.302;17.068;2023-11-18T11:22:39;4.20;87.39
77218;DHT22;66214;51.302;17.068;2023-11-18T11:25:22;4.21;87.28
77218;DHT22;66214;51.302;17.068;2023-11-18T11:33:33;4.40;87.46
77218;DHT22;66214;51.302;17.068;2023-11-18T11:36:12;4.41;87.46
77218;DHT22;66214;51.302;17.068;2023-11-18T11:38:46;4.39;87.29
77218;DHT22;66214;51.302;17.068;2023-11-18T11:41:15;4.41;87.20
77218;DHT22;66214;51.302;17.068;2023-11-18T11:43:48;4.49;87.03
77218;DHT22;66214;51.302;17.068;2023-11-18T11:46:17;4.56;86.90
77218;DHT22;66214;51.302;17.068;2023-11-18T11:48:51;4.67;86.91
77218;DHT22;66214;51.302;17.068;2023-11-18T11:54:15;4.88;86.98
77218;DHT22;66214;51.302;17.068;2023-11-18T11:56:50;4.92;86.81
77218;DHT22;66214;51.302;17.068;2023-11-18T12:02:15;4.86;86.23
77218;DHT22;66214;51.302;17.068;2023-11-18T12:04:53;4.86;86.10
77218;DHT22;66214;51.302;17.068;2023-11-18T12:07:26;4.90;86.10
77218;DHT22;66214;51.302;17.068;2023-11-18T12:09:56;4.99;85.95
77218;DHT22;66214;51.302;17.068;2023-11-18T12:12:26;5.26;86.26
77218;DHT22;66214;51.302;17.068;2023-11-18T12:14:56;5.63;85.99
77218;DHT22;66214;51.302;17.068;2023-11-18T12:20:38;6.29;85.02
77218;DHT22;66214;51.302;17.068;2023-11-18T12:23:10;6.40;84.72
77218;DHT22;66214;51.302;17.068;2023-11-18T12:25:51;6.52;84.95
77218;DHT22;66214;51.302;17.068;2023-11-18T12:28:26;6.60;85.09
77218;DHT22;66214;51.302;17.068;2023-11-18T12:30:58;6.59;84.82
77218;DHT22;66214;51.302;17.068;2023-11-18T12:34:07;6.44;83.47
77218;DHT22;66214;51.302;17.068;2023-11-18T12:42:05;6.13;83.09
77218;DHT22;66214;51.302;17.068;2023-11-18T12:47:35;5.84;82.91
77218;DHT22;66214;51.302;17.068;2023-11-18T12:50:08;5.68;82.11
77218;DHT22;66214;51.302;17.068;2023-11-18T12:52:45;5.68;82.27
77218;DHT22;66214;51.302;17.068;2023-11-18T12:55:13;5.77;82.84
77218;DHT22;66214;51.302;17.068;2023-11-18T12:57:46;5.88;83.24
77218;DHT22;66214;51.302;17.068;2023-11-18T13:00:16;5.97;82.80
77218;DHT22;66214;51.302;17.068;2023-11-18T13:02:54;6.06;82.66
77218;DHT22;66214;51.302;17.068;2023-11-18T13:05:25;6.12;82.28
77218;DHT22;66214;51.302;17.068;2023-11-18T13:07:57;6.14;81.92
77218;DHT22;66214;51.302;17.068;2023-11-18T13:10:28;6.10;81.81
77218;DHT22;66214;51.302;17.068;2023-11-18T13:12:56;5.99;81.73
77218;DHT22;66214;51.302;17.068;2023-11-18T13:15:25;5.90;82.31
77218;DHT22;66214;51.302;17.068;2023-11-18T13:17:58;5.85;82.28
77218;DHT22;66214;51.302;17.068;2023-11-18T13:20:34;5.75;81.77
77218;DHT22;66214;51.302;17.068;2023-11-18T13:23:03;5.69;82.04
77218;DHT22;66214;51.302;17.068;2023-11-18T13:25:36;5.63;81.85
77218;DHT22;66214;51.302;17.068;2023-11-18T13:28:09;5.48;81.53
77218;DHT22;66214;51.302;17.068;2023-11-18T13:30:37;5.43;82.09
77218;DHT22;66214;51.302;17.068;2023-11-18T13:33:06;5.40;82.26
77218;DHT22;66214;51.302;17.068;2023-11-18T13:35:35;5.37;82.52
77218;DHT22;66214;51.302;17.068;2023-11-18T13:38:04;5.34;82.57
77218;DHT22;66214;51.302;17.068;2023-11-18T13:40:45;5.28;82.46
77218;DHT22;66214;51.302;17.068;2023-11-18T13:43:15;5.23;82.28
77218;DHT22;66214;51.302;17.068;2023-11-18T13:49:11;5.15;82.48
77218;DHT22;66214;51.302;17.068;2023-11-18T13:58:05;5.11;82.96
77218;DHT22;66214;51.302;17.068;2023-11-18T14:00:33;5.12;82.93
77218;DHT22;66214;51.302;17.068;2023-11-18T14:03:03;5.13;82.79
77218;DHT22;66214;51.302;17.068;2023-11-18T14:05:34;5.15;82.63
77218;DHT22;66214;51.302;17.068;2023-11-18T14:08:03;5.16;82.45
77218;DHT22;66214;51.302;17.068;2023-11-18T14:10:36;5.17;82.38
77218;DHT22;66214;51.302;17.068;2023-11-18T14:13:08;5.14;82.31
77218;DHT22;66214;51.302;17.068;2023-11-18T14:15:44;5.13;82.55
77218;DHT22;66214;51.302;17.068;2023-11-18T14:18:15;5.12;82.73
77218;DHT22;66214;51.302;17.068;2023-11-18T14:20:43;5.12;82.70
77218;DHT22;66214;51.302;17.068;2023-11-18T14:23:11;5.12;82.56
77218;DHT22;66214;51.302;17.068;2023-11-18T14:25:42;5.13;82.28
77218;DHT22;66214;51.302;17.068;2023-11-18T14:28:10;5.14;82.07
77218;DHT22;66214;51.302;17.068;2023-11-18T14:30:56;5.12;81.74
77218;DHT22;66214;51.302;17.068;2023-11-18T14:33:25;5.05;81.89
77218;DHT22;66214;51.302;17.068;2023-11-18T14:35:53;5.00;82.22
77218;DHT22;66214;51.302;17.068;2023-11-18T14:38:23;4.97;82.53
77218;DHT22;66214;51.302;17.068;2023-11-18T14:40:51;4.94;82.75
77218;DHT22;66214;51.302;17.068;2023-11-18T14:43:21;4.91;82.80
77218;DHT22;66214;51.302;17.068;2023-11-18T14:45:49;4.87;82.74
77218;DHT22;66214;51.302;17.068;2023-11-18T14:48:17;4.82;82.65
77218;DHT22;66214;51.302;17.068;2023-11-18T14:50:45;4.78;82.59
77218;DHT22;66214;51.302;17.068;2023-11-18T14:53:14;4.77;82.52
77218;DHT22;66214;51.302;17.068;2023-11-18T14:55:41;4.73;82.66
77218;DHT22;66214;51.302;17.068;2023-11-18T14:58:11;4.70;82.86
77218;DHT22;66214;51.302;17.068;2023-11-18T15:00:40;4.70;83.12
77218;DHT22;66214;51.302;17.068;2023-11-18T15:03:10;4.68;83.25
77218;DHT22;66214;51.302;17.068;2023-11-18T15:05:39;4.66;83.28
77218;DHT22;66214;51.302;17.068;2023-11-18T15:08:08;4.67;83.17
77218;DHT22;66214;51.302;17.068;2023-11-18T15:10:37;4.67;83.07
77218;DHT22;66214;51.302;17.068;2023-11-18T15:13:08;4.67;82.99
77218;DHT22;66214;51.302;17.068;2023-11-18T15:15:43;4.59;82.91
77218;DHT22;66214;51.302;17.068;2023-11-18T15:18:15;4.54;83.05
77218;DHT22;66214;51.302;17.068;2023-11-18T15:20:51;4.53;83.29
77218;DHT22;66214;51.302;17.068;2023-11-18T15:23:20;4.55;83.41
77218;DHT22;66214;51.302;17.068;2023-11-18T15:25:50;4.54;83.41
77218;DHT22;66214;51.302;17.068;2023-11-18T15:28:18;4.53;83.32
77218;DHT22;66214;51.302;17.068;2023-11-18T15:31:12;4.47;83.22
77218;DHT22;66214;51.302;17.068;2023-11-18T15:33:43;4.45;83.15
77218;DHT22;66214;51.302;17.068;2023-11-18T15:36:13;4.44;83.17
77218;DHT22;66214;51.302;17.068;2023-11-18T15:38:42;4.43;83.26
77218;DHT22;66214;51.302;17.068;2023-11-18T15:41:12;4.44;83.44
77218;DHT22;66214;51.302;17.068;2023-11-18T15:43:41;4.47;83.63
77218;DHT22;66214;51.302;17.068;2023-11-18T15:46:09;4.48;83.73
77218;DHT22;66214;51.302;17.068;2023-11-18T15:48:40;4.47;83.63
77218;DHT22;66214;51.302;17.068;2023-11-18T15:51:09;4.44;83.51
77218;DHT22;66214;51.302;17.068;2023-11-18T15:53:41;4.42;83.45
77218;DHT22;66214;51.302;17.068;2023-11-18T15:56:11;4.40;83.36
77218;DHT22;66214;51.302;17.068;2023-11-18T15:58:40;4.38;83.31
77218;DHT22;66214;51.302;17.068;2023-11-18T16:01:08;4.37;83.43
77218;DHT22;66214;51.302;17.068;2023-11-18T16:04:04;4.35;83.53
77218;DHT22;66214;51.302;17.068;2023-11-18T16:06:32;4.35;83.77
77218;DHT22;66214;51.302;17.068;2023-11-18T16:09:01;4.34;83.73
77218;DHT22;66214;51.302;17.068;2023-11-18T16:12:21;4.31;83.62
77218;DHT22;66214;51.302;17.068;2023-11-18T16:14:50;4.30;83.49
77218;DHT22;66214;51.302;17.068;2023-11-18T16:17:19;4.29;83.39
77218;DHT22;66214;51.302;17.068;2023-11-18T16:19:49;4.28;83.30
77218;DHT22;66214;51.302;17.068;2023-11-18T16:22:18;4.27;83.40
77218;DHT22;66214;51.302;17.068;2023-11-18T16:24:46;4.29;83.66
77218;DHT22;66214;51.302;17.068;2023-11-18T16:27:15;4.33;83.89
77218;DHT22;66214;51.302;17.068;2023-11-18T16:29:43;4.34;83.99
77218;DHT22;66214;51.302;17.068;2023-11-18T16:32:12;4.33;83.98
77218;DHT22;66214;51.302;17.068;2023-11-18T16:34:40;4.31;83.91
77218;DHT22;66214;51.302;17.068;2023-11-18T16:37:08;4.28;83.83
77218;DHT22;66214;51.302;17.068;2023-11-18T16:39:37;4.24;83.79
77218;DHT22;66214;51.302;17.068;2023-11-18T16:42:06;4.22;83.73
77218;DHT22;66214;51.302;17.068;2023-11-18T16:44:35;4.19;83.68
77218;DHT22;66214;51.302;17.068;2023-11-18T16:47:04;4.17;83.90
77218;DHT22;66214;51.302;17.068;2023-11-18T16:49:32;4.15;84.18
77218;DHT22;66214;51.302;17.068;2023-11-18T16:52:01;4.13;84.33
77218;DHT22;66214;51.302;17.068;2023-11-18T16:54:31;4.14;84.57
77218;DHT22;66214;51.302;17.068;2023-11-18T16:56:59;4.12;84.51
77218;DHT22;66214;51.302;17.068;2023-11-18T16:59:27;4.09;84.40
77218;DHT22;66214;51.302;17.068;2023-11-18T17:03:58;4.04;84.22
77218;DHT22;66214;51.302;17.068;2023-11-18T17:06:26;4.02;83.97
77218;DHT22;66214;51.302;17.068;2023-11-18T17:08:54;4.00;84.07
77218;DHT22;66214;51.302;17.068;2023-11-18T17:11:23;3.99;84.21
77218;DHT22;66214;51.302;17.068;2023-11-18T17:13:53;3.99;84.46
77218;DHT22;66214;51.302;17.068;2023-11-18T17:16:25;3.98;84.64
77218;DHT22;66214;51.302;17.068;2023-11-18T17:18:54;3.96;84.63
77218;DHT22;66214;51.302;17.068;2023-11-18T17:24:55;3.95;84.58
77218;DHT22;66214;51.302;17.068;2023-11-18T17:27:26;3.92;84.48
77218;DHT22;66214;51.302;17.068;2023-11-18T17:29:56;3.91;84.60
77218;DHT22;66214;51.302;17.068;2023-11-18T17:32:25;3.92;84.86
77218;DHT22;66214;51.302;17.068;2023-11-18T17:34:54;3.94;85.01
77218;DHT22;66214;51.302;17.068;2023-11-18T17:37:22;3.96;85.07
77218;DHT22;66214;51.302;17.068;2023-11-18T17:39:51;3.97;85.01
77218;DHT22;66214;51.302;17.068;2023-11-18T17:42:20;3.98;84.81
77218;DHT22;66214;51.302;17.068;2023-11-18T17:44:48;3.99;84.64
77218;DHT22;66214;51.302;17.068;2023-11-18T17:47:16;3.98;84.38
77218;DHT22;66214;51.302;17.068;2023-11-18T17:49:45;3.97;84.27
77218;DHT22;66214;51.302;17.068;2023-11-18T17:52:13;3.96;84.18
77218;DHT22;66214;51.302;17.068;2023-11-18T17:54:42;3.96;84.27
77218;DHT22;66214;51.302;17.068;2023-11-18T17:57:11;3.94;84.53
77218;DHT22;66214;51.302;17.068;2023-11-18T17:59:39;3.96;84.77
77218;DHT22;66214;51.302;17.068;2023-11-18T18:02:07;3.96;84.92
77218;DHT22;66214;51.302;17.068;2023-11-18T18:04:39;3.96;85.01
77218;DHT22;66214;51.302;17.068;2023-11-18T18:07:09;3.97;84.94
77218;DHT22;66214;51.302;17.068;2023-11-18T18:13:17;3.97;84.87
77218;DHT22;66214;51.302;17.068;2023-11-18T18:15:47;3.97;84.78
77218;DHT22;66214;51.302;17.068;2023-11-18T18:18:18;3.97;84.72
77218;DHT22;66214;51.302;17.068;2023-11-18T18:20:51;3.97;84.85
77218;DHT22;66214;51.302;17.068;2023-11-18T18:23:20;3.99;85.00
77218;DHT22;66214;51.302;17.068;2023-11-18T18:25:50;4.00;85.16
77218;DHT22;66214;51.302;17.068;2023-11-18T18:28:20;3.99;85.25
77218;DHT22;66214;51.302;17.068;2023-11-18T18:30:48;3.98;85.09
77218;DHT22;66214;51.302;17.068;2023-11-18T18:33:18;3.97;84.91
77218;DHT22;66214;51.302;17.068;2023-11-18T18:35:46;3.93;84.73
77218;DHT22;66214;51.302;17.068;2023-11-18T18:41:12;3.86;84.70
77218;DHT22;66214;51.302;17.068;2023-11-18T18:43:42;3.88;84.86
77218;DHT22;66214;51.302;17.068;2023-11-18T18:46:10;3.90;85.07
77218;DHT22;66214;51.302;17.068;2023-11-18T18:48:39;3.91;85.07
77218;DHT22;66214;51.302;17.068;2023-11-18T18:51:07;3.90;84.93
77218;DHT22;66214;51.302;17.068;2023-11-18T18:53:35;3.92;84.78
77218;DHT22;66214;51.302;17.068;2023-11-18T18:56:03;3.91;84.58
77218;DHT22;66214;51.302;17.068;2023-11-18T18:58:32;3.90;84.51
77218;DHT22;66214;51.302;17.068;2023-11-18T19:01:00;3.91;84.59
77218;DHT22;66214;51.302;17.068;2023-11-18T19:03:28;3.94;84.75
77218;DHT22;66214;51.302;17.068;2023-11-18T19:05:57;3.98;84.86
77218;DHT22;66214;51.302;17.068;2023-11-18T19:08:25;4.00;85.04
77218;DHT22;66214;51.302;17.068;2023-11-18T19:10:54;3.95;84.94
77218;DHT22;66214;51.302;17.068;2023-11-18T19:13:22;3.91;84.91
77218;DHT22;66214;51.302;17.068;2023-11-18T19:15:51;3.88;84.82
77218;DHT22;66214;51.302;17.068;2023-11-18T19:18:20;3.86;84.74
77218;DHT22;66214;51.302;17.068;2023-11-18T19:20:48;3.83;84.71
77218;DHT22;66214;51.302;17.068;2023-11-18T19:23:18;3.84;84.92
77218;DHT22;66214;51.302;17.068;2023-11-18T19:25:46;3.84;85.11
77218;DHT22;66214;51.302;17.068;2023-11-18T19:28:15;3.86;85.21
77218;DHT22;66214;51.302;17.068;2023-11-18T19:30:44;3.87;85.47
77218;DHT22;66214;51.302;17.068;2023-11-18T19:33:12;3.88;85.61
77218;DHT22;66214;51.302;17.068;2023-11-18T19:35:41;3.86;85.48
77218;DHT22;66214;51.302;17.068;2023-11-18T19:38:09;3.90;85.33
77218;DHT22;66214;51.302;17.068;2023-11-18T19:40:38;3.91;85.17
77218;DHT22;66214;51.302;17.068;2023-11-18T19:43:07;3.90;84.96
77218;DHT22;66214;51.302;17.068;2023-11-18T19:45:36;3.89;84.89
77218;DHT22;66214;51.302;17.068;2023-11-18T19:48:04;3.88;85.02
77218;DHT22;66214;51.302;17.068;2023-11-18T19:50:33;3.88;85.19
77218;DHT22;66214;51.302;17.068;2023-11-18T19:53:04;3.89;85.37
77218;DHT22;66214;51.302;17.068;2023-11-18T19:55:35;3.91;85.46
77218;DHT22;66214;51.302;17.068;2023-11-18T19:58:04;3.90;85.36
77218;DHT22;66214;51.302;17.068;2023-11-18T20:00:32;3.87;85.18
77218;DHT22;66214;51.302;17.068;2023-11-18T20:03:01;3.84;85.07
77218;DHT22;66214;51.302;17.068;2023-11-18T20:05:30;3.82;84.87
77218;DHT22;66214;51.302;17.068;2023-11-18T20:07:59;3.78;84.78
77218;DHT22;66214;51.302;17.068;2023-11-18T20:10:27;3.77;84.91
77218;DHT22;66214;51.302;17.068;2023-11-18T20:12:56;3.76;85.12
77218;DHT22;66214;51.302;17.068;2023-11-18T20:15:24;3.75;85.33